This London Heathrow Airport weather forecast is generated by the Met Office Weather Widget

AirNav RadarBox - Metar Weather
  London Heathrow Metar Weather
 

METAR = EGLL 010620Z 25017KT 9999 FEW033 07/03 Q1000 NOSIG

STATION........ EGLL
OBSERVED....... Sun Mar 1, 06:20 UTC
NOW............ Sun Mar 1, 06:48 UTC
AGE............ 28 min ago
WIND........... WSW at 20 mph
VISIBILITY..... 16 miles
CLOUDS......... partly cloudy
TEMP........... 45°F (7°C)
WIND CHILL..... 37°F (3°C)
DEWPT.......... 37°F (3°C)
HUMIDITY....... 76%
BAROMETER...... 1000 hPa (29.53 in Hg)

Sun Mar 01 2015, sunrise time : 06:49
Sun Mar 01 2015, sunset time : 17:38